Time;durP1;ratioP1;P1;durP2;ratioP2;P2;SDS_P1;SDS_P2;PMS_P1;PMS_P2;Temp;Humidity;BMP_temperature;BMP_pressure;BME280_temperature;BME280_humidity;BME280_pressure;Samples;Min_cycle;Max_cycle;Signal;HPM_P1;HPM_P2
2023/07/29 00:02:05;;;;;;;5.45;2.80;;;18.10;99.90;;;18.65;100.00;99765.41;5011412;28;20125;-76
2023/07/29 00:04:30;;;;;;;2.90;2.30;;;18.10;99.90;;;18.52;100.00;99764.97;5012222;28;20472;-77
2023/07/29 00:06:56;;;;;;;3.72;2.65;;;18.00;99.90;;;18.42;100.00;99751.28;5012001;28;20084;-76
2023/07/29 00:09:22;;;;;;;3.67;2.65;;;17.90;99.90;;;18.60;100.00;99744.19;5012134;28;20417;-77
2023/07/29 00:11:50;;;;;;;3.95;2.47;;;18.00;99.90;;;18.59;100.00;99731.47;5026950;28;20481;-76
2023/07/29 00:14:16;;;;;;;3.25;2.30;;;18.10;99.90;;;18.51;100.00;99752.28;5016211;28;20081;-76
2023/07/29 00:16:42;;;;;;;2.97;2.35;;;18.00;99.90;;;18.40;100.00;99759.03;5011899;28;20057;-76
2023/07/29 00:19:08;;;;;;;6.82;2.58;;;17.90;99.90;;;18.36;100.00;99746.94;5012480;28;20073;-77
2023/07/29 00:21:35;;;;;;;4.70;2.60;;;17.90;99.90;;;18.54;100.00;99745.34;5012396;28;20099;-76
2023/07/29 00:24:01;;;;;;;4.47;2.40;;;18.00;99.90;;;18.54;100.00;99746.16;5027082;28;20495;-76
2023/07/29 00:26:28;;;;;;;4.90;2.42;;;17.90;99.90;;;18.45;100.00;99753.44;4994838;28;20040;-76
2023/07/29 00:28:58;;;;;;;;;;;17.90;99.90;;;18.52;100.00;99759.44;5012456;28;20034;-76
2023/07/29 00:31:24;;;;;;;5.78;2.75;;;17.80;99.90;;;18.45;100.00;99758.16;5012238;28;19917;-77
2023/07/29 00:33:52;;;;;;;2.90;2.15;;;17.80;99.90;;;18.29;100.00;99743.66;5011614;28;20105;-76
2023/07/29 00:36:18;;;;;;;4.30;2.47;;;17.80;99.90;;;18.48;100.00;99758.38;5007823;28;20046;-76
2023/07/29 00:38:44;;;;;;;3.85;2.80;;;17.80;99.90;;;18.54;100.00;99764.69;5019715;28;20434;-76
2023/07/29 00:41:13;;;;;;;2.97;2.40;;;17.80;99.90;;;18.51;100.00;99766.09;5011066;28;20038;-77
2023/07/29 00:43:41;;;;;;;3.67;2.72;;;17.80;99.90;;;18.40;100.00;99762.59;5014099;28;20061;-77
2023/07/29 00:46:08;;;;;;;4.10;2.92;;;17.70;99.90;;;18.49;100.00;99768.31;5014131;28;20040;-77
2023/07/29 00:48:36;;;;;;;4.93;3.13;;;17.60;99.90;;;18.30;100.00;99767.38;5011437;28;20452;-77
2023/07/29 00:51:02;;;;;;;4.95;3.08;;;17.60;99.90;;;18.21;100.00;99756.97;5014838;28;20042;-77
2023/07/29 00:53:28;;;;;;;4.28;2.83;;;17.50;99.90;;;18.23;100.00;99759.47;5013834;28;20241;-77
2023/07/29 00:55:54;;;;;;;3.58;2.55;;;17.50;99.90;;;18.19;100.00;99748.16;5015223;28;20040;-77
2023/07/29 00:58:20;;;;;;;4.10;3.10;;;17.50;99.90;;;18.15;100.00;99746.28;5028974;28;20030;-77
2023/07/29 01:00:45;;;;;;;4.18;3.15;;;17.40;99.90;;;18.10;100.00;99736.94;5014951;28;20068;-75
2023/07/29 01:03:11;;;;;;;5.60;3.20;;;17.40;99.90;;;18.00;100.00;99727.88;5002257;28;20030;-77
2023/07/29 01:06:01;;;;;;;3.92;2.90;;;17.30;99.90;;;17.93;100.00;99733.75;5013730;28;20052;-77
2023/07/29 01:08:41;;;;;;;3.70;2.80;;;17.20;99.90;;;17.88;100.00;99729.09;5014445;28;20041;-76
2023/07/29 01:11:22;;;;;;;5.00;3.05;;;17.10;99.90;;;17.87;100.00;99721.94;5018921;28;20087;-77
2023/07/29 01:13:58;;;;;;;5.70;2.97;;;17.10;99.90;;;17.77;100.00;99720.06;5013712;28;20123;-77
2023/07/29 01:16:33;;;;;;;4.07;3.08;;;17.00;99.90;;;17.73;100.00;99704.38;5019745;28;20038;-76
2023/07/29 01:19:06;;;;;;;4.30;3.08;;;17.00;99.90;;;17.61;100.00;99700.06;5011559;28;20041;-76
2023/07/29 01:21:35;;;;;;;3.83;2.95;;;16.90;99.90;;;17.54;100.00;99681.06;5028842;28;20573;-77
2023/07/29 01:24:01;;;;;;;4.35;2.95;;;16.90;99.90;;;17.65;100.00;99672.75;5013096;28;20092;-77
2023/07/29 01:26:29;;;;;;;3.88;3.08;;;16.90;99.90;;;17.68;100.00;99675.72;5004272;28;20038;-77
2023/07/29 01:28:56;;;;;;;;;;;16.90;99.90;;;17.66;100.00;99675.19;5020409;28;20450;-77
2023/07/29 01:31:35;;;;;;;4.40;3.22;;;16.90;99.90;;;17.65;100.00;99670.78;5013175;28;19917;-77
2023/07/29 01:34:23;;;;;;;5.68;3.25;;;16.90;99.90;;;17.59;100.00;99668.34;5014468;28;20486;-77
2023/07/29 01:36:52;;;;;;;5.53;3.40;;;16.80;99.90;;;17.34;100.00;99665.50;5015411;28;20092;-77
2023/07/29 01:39:22;;;;;;;4.05;3.28;;;16.80;99.90;;;17.31;100.00;99644.03;5020421;28;20041;-77
2023/07/29 01:41:50;;;;;;;5.00;3.60;;;16.80;99.90;;;17.39;100.00;99634.34;5007600;28;20030;-77
2023/07/29 01:44:18;;;;;;;4.95;3.10;;;16.70;99.90;;;17.38;100.00;99630.75;5020048;28;20070;-77
2023/07/29 01:46:44;;;;;;;4.28;3.30;;;16.70;99.90;;;17.23;100.00;99639.94;5014490;28;20068;-77
2023/07/29 01:49:10;;;;;;;4.43;3.55;;;16.70;99.90;;;17.26;100.00;99641.31;5014403;28;20038;-77
2023/07/29 01:51:36;;;;;;;4.50;3.25;;;16.60;99.90;;;17.20;100.00;99637.78;5014365;28;20061;-77
2023/07/29 01:54:01;;;;;;;4.32;3.38;;;16.60;99.90;;;17.16;100.00;99635.88;5015944;28;20041;-77
2023/07/29 01:56:27;;;;;;;4.18;3.20;;;16.60;99.90;;;17.24;100.00;99636.09;5014133;28;20052;-77
2023/07/29 01:58:55;;;;;;;4.50;3.53;;;16.60;99.90;;;17.23;100.00;99639.13;5017038;28;20026;-76
2023/07/29 02:01:20;;;;;;;6.47;4.03;;;16.60;99.90;;;17.21;100.00;99633.91;5026266;28;20041;-77
2023/07/29 02:03:46;;;;;;;4.93;3.97;;;16.60;99.90;;;17.40;100.00;99628.53;5013921;28;20030;-76
2023/07/29 02:06:12;;;;;;;5.15;3.95;;;16.70;99.90;;;17.30;100.00;99619.50;5026421;28;20030;-76
2023/07/29 02:08:40;;;;;;;5.90;3.53;;;16.70;99.90;;;17.43;100.00;99607.84;4996456;28;20034;-76
2023/07/29 02:11:06;;;;;;;4.85;3.47;;;16.80;99.90;;;17.59;100.00;99588.38;5027222;28;20064;-76
2023/07/29 02:13:32;;;;;;;5.50;3.38;;;17.00;99.90;;;17.61;100.00;99577.88;5014112;28;20081;-76
2023/07/29 02:15:58;;;;;;;5.25;3.45;;;17.10;99.90;;;17.73;100.00;99589.38;5014012;28;20432;-76
2023/07/29 02:18:23;;;;;;;5.40;3.00;;;17.10;99.90;;;17.89;100.00;99592.78;5013700;28;20034;-76
2023/07/29 02:20:49;;;;;;;3.05;2.22;;;17.30;99.90;;;18.11;100.00;99594.25;5011977;28;20038;-75
2023/07/29 02:23:17;;;;;;;3.70;2.60;;;17.50;99.90;;;18.33;100.00;99620.50;5020641;28;20049;-76
2023/07/29 02:25:43;;;;;;;4.68;2.38;;;17.70;99.90;;;18.46;100.00;99644.63;5013344;28;20524;-76
2023/07/29 02:28:08;;;;;;;3.70;2.30;;;17.90;99.90;;;18.73;100.00;99683.84;5011902;28;20057;-76
2023/07/29 02:30:34;;;;;;;3.53;2.20;;;18.00;99.90;;;18.72;100.00;99707.06;5011923;28;20121;-75
2023/07/29 02:33:01;;;;;;;3.22;2.28;;;18.20;99.90;;;18.82;100.00;99707.72;5013422;28;20375;-76
2023/07/29 02:35:27;;;;;;;2.65;1.83;;;18.20;99.90;;;18.77;100.00;99710.56;5013027;28;20041;-76
2023/07/29 02:37:53;;;;;;;3.83;2.30;;;18.30;99.90;;;18.87;100.00;99725.38;5011685;28;20030;-76
2023/07/29 02:40:22;;;;;;;3.72;2.05;;;18.30;99.90;;;18.90;100.00;99733.88;5011860;28;20084;-76
2023/07/29 02:42:48;;;;;;;3.28;1.80;;;18.40;99.90;;;18.96;100.00;99734.66;5021224;28;20049;-76
2023/07/29 02:45:14;;;;;;;3.33;2.10;;;18.40;99.90;;;18.91;100.00;99735.53;5021553;28;20045;-76
2023/07/29 02:47:39;;;;;;;2.65;1.92;;;18.30;99.90;;;18.89;100.00;99745.25;5012077;28;21341;-76
2023/07/29 02:50:06;;;;;;;3.10;2.03;;;18.30;99.90;;;18.88;100.00;99738.88;5011900;28;20094;-77
2023/07/29 02:52:31;;;;;;;3.88;2.28;;;18.30;99.90;;;18.91;100.00;99738.28;5015881;28;20044;-76
2023/07/29 02:54:57;;;;;;;3.72;1.92;;;18.20;99.90;;;18.79;100.00;99747.00;5011286;28;20485;-76
2023/07/29 02:57:23;;;;;;;5.57;2.17;;;18.20;99.90;;;18.72;100.00;99735.50;5013177;28;20030;-76
2023/07/29 02:59:48;;;;;;;4.13;2.22;;;18.20;99.90;;;18.73;100.00;99742.66;5011762;28;20087;-76
2023/07/29 03:02:16;;;;;;;4.38;2.33;;;18.10;99.90;;;18.65;100.00;99729.50;5011992;28;20045;-76
2023/07/29 03:04:41;;;;;;;4.35;2.10;;;18.00;99.90;;;18.68;100.00;99737.19;5011437;28;20061;-76
2023/07/29 03:07:08;;;;;;;2.63;1.90;;;18.00;99.90;;;18.68;100.00;99734.44;5013237;28;20030;-76
2023/07/29 03:09:34;;;;;;;2.72;2.00;;;18.00;99.90;;;18.61;100.00;99729.25;5019804;28;20033;-76
2023/07/29 03:12:00;;;;;;;3.25;2.08;;;18.00;99.90;;;18.67;100.00;99732.78;5011655;28;20030;-76
2023/07/29 03:14:26;;;;;;;2.83;2.08;;;18.00;99.90;;;18.68;100.00;99739.97;5011346;28;20486;-75
2023/07/29 03:16:52;;;;;;;3.95;2.40;;;18.10;99.90;;;18.64;100.00;99733.38;5010940;28;20030;-75
2023/07/29 03:19:17;;;;;;;3.63;1.90;;;18.10;99.90;;;18.67;100.00;99721.75;5029737;28;20357;-75
2023/07/29 03:21:43;;;;;;;5.10;2.17;;;18.20;99.90;;;18.77;100.00;99734.63;5026876;28;20033;-75
2023/07/29 03:24:09;;;;;;;4.55;1.90;;;18.20;99.90;;;18.89;100.00;99736.97;5011666;28;20041;-76
2023/07/29 03:26:35;;;;;;;2.78;1.88;;;18.30;99.90;;;18.89;100.00;99740.53;5019606;28;20041;-75
2023/07/29 03:29:01;;;;;;;4.03;1.92;;;18.30;99.90;;;18.85;100.00;99738.69;5004558;28;20033;-75
2023/07/29 03:31:27;;;;;;;3.50;2.10;;;18.30;99.90;;;18.77;100.00;99743.72;5024089;28;20080;-76
2023/07/29 03:33:53;;;;;;;2.80;1.83;;;18.30;99.90;;;18.78;100.00;99744.53;5006936;28;20124;-76
2023/07/29 03:36:19;;;;;;;3.20;1.95;;;18.20;99.90;;;18.82;100.00;99740.06;5011217;28;20078;-77
2023/07/29 03:38:45;;;;;;;4.22;2.13;;;18.20;99.90;;;19.04;100.00;99738.75;5020556;28;20520;-76
2023/07/29 03:41:10;;;;;;;3.00;1.90;;;18.20;99.90;;;19.03;100.00;99743.44;5013487;28;20394;-76
2023/07/29 03:43:36;;;;;;;3.63;2.28;;;18.20;99.90;;;19.00;100.00;99741.25;5013039;28;20124;-76
2023/07/29 03:46:02;;;;;;;4.15;2.00;;;18.20;99.90;;;18.76;100.00;99750.34;5015563;28;20500;-75
2023/07/29 03:48:28;;;;;;;2.90;1.88;;;18.30;99.90;;;18.59;100.00;99725.97;5029104;28;20033;-75
2023/07/29 03:50:54;;;;;;;5.32;2.10;;;18.30;99.90;;;18.74;100.00;99730.50;5015429;28;20482;-75
2023/07/29 03:53:20;;;;;;;3.30;1.70;;;18.30;99.90;;;18.73;100.00;99726.09;5012021;28;20053;-76
2023/07/29 03:55:46;;;;;;;3.45;2.03;;;18.30;99.90;;;18.70;100.00;99715.63;5010653;28;20034;-75
2023/07/29 03:58:12;;;;;;;2.80;1.70;;;18.30;99.90;;;18.83;100.00;99728.75;5010751;28;20072;-75
2023/07/29 04:00:38;;;;;;;4.38;2.10;;;18.30;99.90;;;18.85;100.00;99724.88;5011789;28;20116;-75
2023/07/29 04:03:04;;;;;;;2.80;1.83;;;18.30;99.90;;;18.90;100.00;99719.25;5011503;28;20056;-75
2023/07/29 04:05:30;;;;;;;3.90;2.10;;;18.30;99.90;;;18.89;100.00;99720.38;5011103;28;20038;-75
2023/07/29 04:07:56;;;;;;;3.75;2.00;;;18.30;99.90;;;18.82;100.00;99715.22;5010541;28;20498;-75
2023/07/29 04:10:22;;;;;;;4.57;1.90;;;18.30;99.90;;;18.79;100.00;99713.03;5020894;28;20037;-76
2023/07/29 04:12:48;;;;;;;4.55;2.00;;;18.30;99.90;;;18.76;100.00;99713.63;5029772;28;20045;-76
2023/07/29 04:15:14;;;;;;;2.42;1.75;;;18.30;99.90;;;18.76;100.00;99714.44;5029985;28;20444;-76
2023/07/29 04:17:40;;;;;;;3.28;1.90;;;18.30;99.90;;;18.83;100.00;99723.22;5028530;28;20044;-76
2023/07/29 04:20:07;;;;;;;2.83;1.80;;;18.30;99.90;;;18.88;100.00;99721.50;5046984;28;20038;-76
2023/07/29 04:22:33;;;;;;;3.67;2.03;;;18.40;99.90;;;18.92;100.00;99728.06;5040430;28;20048;-76
2023/07/29 04:24:59;;;;;;;4.70;1.70;;;18.50;99.90;;;18.80;100.00;99723.78;5025934;28;20481;-76
2023/07/29 04:27:25;;;;;;;3.53;2.00;;;18.50;99.90;;;18.64;100.00;99708.53;5029847;28;20621;-77
2023/07/29 04:29:51;;;;;;;2.97;2.00;;;18.40;99.90;;;18.78;100.00;99692.06;5032662;28;20040;-77
2023/07/29 04:32:16;;;;;;;2.60;1.70;;;18.40;99.90;;;18.75;100.00;99684.38;5047006;28;20037;-77
2023/07/29 04:34:42;;;;;;;4.43;2.22;;;18.40;99.90;;;18.77;100.00;99673.84;5030951;28;20037;-76
2023/07/29 04:37:08;;;;;;;3.45;2.10;;;18.40;99.90;;;18.81;100.00;99675.69;5030613;28;20038;-76
2023/07/29 04:39:33;;;;;;;5.20;2.13;;;18.40;99.90;;;18.85;100.00;99666.84;5031440;28;20417;-77
2023/07/29 04:42:00;;;;;;;3.17;2.20;;;18.50;99.90;;;18.90;100.00;99683.34;5032536;28;20025;-77
2023/07/29 04:44:26;;;;;;;3.72;1.98;;;18.40;99.90;;;18.86;100.00;99679.53;5034931;28;20602;-76
2023/07/29 04:46:52;;;;;;;3.70;2.10;;;18.40;99.90;;;18.92;100.00;99675.56;5038528;28;20026;-77
2023/07/29 04:49:18;;;;;;;5.00;2.20;;;18.40;99.90;;;18.93;100.00;99683.56;5028990;28;20449;-76
2023/07/29 04:51:44;;;;;;;5.22;2.08;;;18.50;99.90;;;18.91;100.00;99685.00;5019807;28;20033;-77
2023/07/29 04:54:10;;;;;;;4.05;2.10;;;18.40;99.90;;;18.90;100.00;99688.88;5033618;28;20028;-76
2023/07/29 04:56:35;;;;;;;3.13;2.22;;;18.40;99.90;;;18.95;100.00;99694.31;5027974;28;20049;-76
2023/07/29 04:59:01;;;;;;;2.92;1.90;;;18.50;99.90;;;18.81;100.00;99683.97;5028306;28;20048;-77
2023/07/29 05:01:27;;;;;;;3.00;1.63;;;18.50;99.90;;;18.80;100.00;99687.88;5030598;28;20033;-77
2023/07/29 05:03:53;;;;;;;2.40;1.40;;;18.50;99.90;;;18.83;100.00;99681.78;5031006;28;20037;-77
2023/07/29 05:06:19;;;;;;;4.68;2.40;;;18.50;99.90;;;18.89;100.00;99684.47;5025818;28;20034;-77
2023/07/29 05:08:45;;;;;;;3.20;2.00;;;18.50;99.90;;;18.94;100.00;99687.16;5019544;28;20509;-80
2023/07/29 05:11:11;;;;;;;4.85;2.28;;;18.50;99.90;;;19.00;100.00;99685.19;5019774;28;20465;-76
2023/07/29 05:13:37;;;;;;;3.85;2.05;;;18.50;99.90;;;19.06;100.00;99692.28;5037861;28;20025;-76
2023/07/29 05:16:03;;;;;;;3.30;2.20;;;18.50;99.90;;;19.13;100.00;99689.16;5014100;28;20064;-77
2023/07/29 05:18:29;;;;;;;3.05;2.13;;;18.60;99.90;;;19.18;100.00;99691.84;5013608;28;20037;-78
2023/07/29 05:20:55;;;;;;;4.65;2.35;;;18.60;99.90;;;19.18;100.00;99691.84;5017512;28;20030;-75
2023/07/29 05:23:21;;;;;;;4.10;2.20;;;18.70;99.90;;;19.20;100.00;99693.16;5020691;28;20072;-74
2023/07/29 05:25:47;;;;;;;3.60;2.25;;;18.70;99.90;;;19.31;100.00;99687.50;5029213;28;20033;-75
2023/07/29 05:28:13;;;;;;;4.35;2.20;;;18.60;99.90;;;19.40;100.00;99699.53;5028130;28;20087;-75
2023/07/29 05:30:40;;;;;;;3.97;2.10;;;18.50;99.90;;;19.38;100.00;99704.53;5040693;28;20030;-74
2023/07/29 05:33:09;;;;;;;4.20;2.50;;;18.50;99.90;;;19.25;100.00;99695.06;5030717;28;20030;-76
2023/07/29 05:35:35;;;;;;;3.92;2.28;;;18.40;99.90;;;19.17;100.00;99702.06;5023254;28;20107;-76
2023/07/29 05:38:01;;;;;;;3.88;2.70;;;18.30;99.90;;;19.04;100.00;99669.66;5026136;28;20042;-76
2023/07/29 05:40:26;;;;;;;4.50;3.08;;;18.20;99.90;;;18.93;100.00;99641.31;5017038;28;20044;-76
2023/07/29 05:42:52;;;;;;;3.83;2.90;;;18.20;99.90;;;18.89;100.00;99618.16;5034974;28;20041;-76
2023/07/29 05:45:20;;;;;;;6.10;3.45;;;18.20;99.90;;;18.73;100.00;99582.44;5041245;28;20769;-75
2023/07/29 05:47:46;;;;;;;5.85;3.80;;;18.10;99.90;;;18.55;100.00;99531.59;5027128;28;20029;-74
2023/07/29 05:50:12;;;;;;;7.82;4.38;;;18.00;99.90;;;18.60;100.00;99505.84;5029194;28;20381;-75
2023/07/29 05:52:38;;;;;;;5.63;4.20;;;18.00;99.90;;;18.80;100.00;99504.72;5029239;28;20040;-76
2023/07/29 05:55:04;;;;;;;4.78;3.70;;;18.10;99.90;;;18.90;100.00;99501.78;5031447;28;20040;-75
2023/07/29 05:57:30;;;;;;;6.18;3.90;;;18.20;99.90;;;19.06;100.00;99502.38;5039337;28;20115;-75
2023/07/29 05:59:56;;;;;;;5.72;3.70;;;18.20;99.90;;;19.04;100.00;99512.91;5014914;28;20034;-81
2023/07/29 06:02:22;;;;;;;6.75;3.70;;;18.30;99.90;;;19.13;100.00;99537.13;5017602;28;20569;-76
2023/07/29 06:04:48;;;;;;;4.65;3.45;;;18.40;99.90;;;18.93;100.00;99519.72;5021973;28;20374;-76
2023/07/29 06:07:13;;;;;;;274.10;63.65;;;18.40;99.90;;;19.17;100.00;99544.50;5029750;28;20030;-77
2023/07/29 06:09:40;;;;;;;4.53;2.38;;;18.50;99.90;;;19.26;100.00;99552.94;5014466;28;20072;-77
2023/07/29 06:12:06;;;;;;;4.20;2.70;;;18.60;99.90;;;19.31;100.00;99574.97;5013331;28;20496;-76
2023/07/29 06:14:32;;;;;;;6.70;2.90;;;;;;;19.56;100.00;99570.13;5019508;28;20038;-75
2023/07/29 06:17:00;;;;;;;5.47;2.53;;;18.70;99.90;;;19.68;100.00;99578.78;5013615;28;20045;-76
2023/07/29 06:19:26;;;;;;;4.78;2.70;;;18.90;99.90;;;19.75;100.00;99585.84;5018965;28;20041;-76
2023/07/29 06:21:55;;;;;;;6.20;2.70;;;18.90;99.90;;;19.74;100.00;99598.03;5011559;28;20046;-76
2023/07/29 06:24:21;;;;;;;6.15;3.42;;;18.90;99.90;;;19.72;100.00;99598.31;5014065;28;20034;-76
2023/07/29 06:26:47;;;;;;;7.75;2.85;;;18.90;99.90;;;19.58;100.00;99583.66;5014364;28;20045;-77
2023/07/29 06:29:13;;;;;;;5.30;2.63;;;18.90;99.90;;;19.59;100.00;99575.03;5016959;28;20493;-78
2023/07/29 06:31:39;;;;;;;5.82;3.10;;;18.80;99.90;;;19.67;100.00;99588.19;5019387;28;20037;-78
2023/07/29 06:34:04;;;;;;;8.75;3.08;;;18.80;99.90;;;19.71;100.00;99584.81;5023612;28;20084;-78
2023/07/29 06:36:30;;;;;;;7.32;3.00;;;18.90;99.90;;;19.81;100.00;99585.44;5020956;28;20034;-78
2023/07/29 06:38:56;;;;;;;7.18;3.65;;;19.00;99.90;;;19.81;100.00;99577.16;5022934;28;20033;-79
2023/07/29 06:41:22;;;;;;;5.65;3.40;;;;;;;20.00;100.00;99583.75;5035419;28;20042;-76
2023/07/29 06:43:49;;;;;;;6.78;2.95;;;19.00;99.90;;;19.99;100.00;99588.47;5026861;28;20120;-77
2023/07/29 06:46:16;;;;;;;6.80;3.08;;;19.20;99.90;;;20.09;100.00;99595.75;5028059;28;20072;-76
2023/07/29 06:48:42;;;;;;;5.22;3.22;;;19.30;99.90;;;20.02;100.00;99584.28;5022980;28;20136;-78
2023/07/29 06:51:07;;;;;;;5.78;3.17;;;19.30;99.90;;;20.06;100.00;99591.66;5020499;28;20042;-75
2023/07/29 06:53:33;;;;;;;6.07;3.53;;;19.40;99.90;;;20.21;100.00;99575.88;5015146;28;20042;-79
2023/07/29 06:55:59;;;;;;;5.00;2.90;;;;;;;20.50;100.00;99591.34;5029966;28;20343;-78
2023/07/29 06:58:25;;;;;;;5.25;3.00;;;;;;;20.70;100.00;99609.50;5031600;28;20048;-78
2023/07/29 07:00:51;;;;;;;5.28;2.70;;;;;;;20.78;100.00;99627.31;5018212;28;20048;-77
2023/07/29 07:03:18;;;;;;;4.68;2.75;;;;;;;20.78;100.00;99639.22;5015009;28;20443;-80
2023/07/29 07:05:44;;;;;;;5.20;2.85;;;;;;;20.77;100.00;99650.63;5031382;28;20397;-81
2023/07/29 07:08:10;;;;;;;3.60;2.70;;;;;;;20.87;100.00;99655.16;5017294;28;20501;-79
2023/07/29 07:10:36;;;;;;;4.18;2.45;;;;;;;20.90;100.00;99660.91;5021488;28;20053;-79
2023/07/29 07:13:02;;;;;;;6.50;2.60;;;;;;;21.01;100.00;99667.06;5014935;28;20197;-77
2023/07/29 07:15:28;;;;;;;5.18;2.75;;;;;;;20.81;100.00;99665.50;5015826;28;20057;-78
2023/07/29 07:17:54;;;;;;;5.20;2.47;;;;;;;20.78;100.00;99658.63;5013076;28;20100;-77
2023/07/29 07:20:20;;;;;;;5.35;2.58;;;;;;;20.84;100.00;99660.19;5013596;28;20081;-79
2023/07/29 07:22:47;;;;;;;4.05;2.50;;;;;;;20.60;100.00;99670.63;5013439;28;20053;-80
2023/07/29 07:25:13;;;;;;;4.43;2.30;;;;;;;20.59;100.00;99660.69;5013400;28;20144;-79
2023/07/29 07:27:39;;;;;;;3.40;2.20;;;;;;;20.63;100.00;99653.41;5021826;28;20068;-77
2023/07/29 07:30:06;;;;;;;4.55;2.20;;;;;;;20.66;100.00;99642.53;5017259;28;20041;-77
2023/07/29 07:32:32;;;;;;;5.32;2.28;;;;;;;20.65;100.00;99640.06;5011705;28;20042;-78
2023/07/29 07:34:58;;;;;;;3.70;2.05;;;;;;;20.61;100.00;99641.81;5023569;28;20402;-79
2023/07/29 07:37:24;;;;;;;3.92;2.20;;;;;;;20.61;100.00;99637.09;5017484;28;20189;-79
2023/07/29 07:39:50;;;;;;;3.83;2.15;;;;;;;20.59;100.00;99631.06;5012938;28;20095;-79
2023/07/29 07:42:16;;;;;;;2.90;2.00;;;;;;;20.70;100.00;99634.44;5013339;28;20044;-78
2023/07/29 07:44:42;;;;;;;3.20;2.15;;;;;;;20.70;100.00;99621.38;5016281;28;20034;-79
2023/07/29 07:47:09;;;;;;;2.47;1.95;;;;;;;20.69;100.00;99627.25;5016331;28;20460;-76
2023/07/29 07:49:35;;;;;;;3.17;2.28;;;;;;;20.79;100.00;99631.72;5016949;28;20034;-77
2023/07/29 07:52:01;;;;;;;4.38;2.30;;;;;;;20.89;100.00;99628.78;5015786;28;20030;-77
2023/07/29 07:54:27;;;;;;;3.60;2.20;;;;;;;21.03;100.00;99628.75;5015856;28;20393;-77
2023/07/29 07:56:53;;;;;;;3.97;2.30;;;;;;;21.43;100.00;99628.09;5015414;28;20041;-77
2023/07/29 07:59:19;;;;;;;3.58;1.83;;;;;;;21.68;100.00;99659.94;5020620;28;20460;-78
2023/07/29 08:01:45;;;;;;;3.20;1.77;;;;;;;21.56;100.00;99687.44;5016974;28;20036;-77
2023/07/29 08:04:11;;;;;;;5.57;1.70;;;;;;;21.72;100.00;99692.63;5019735;28;20041;-78
2023/07/29 08:06:37;;;;;;;108.22;101.70;;;;;;;21.97;100.00;99691.19;5024890;28;20116;-78
2023/07/29 08:09:04;;;;;;;110.28;85.55;;;;;;;22.17;100.00;99695.38;5016198;28;20038;-78
2023/07/29 08:11:30;;;;;;;5.10;1.70;;;;;;;22.35;100.00;99723.25;5019490;28;20371;-77
2023/07/29 08:13:58;;;;;;;3.10;1.40;;;;;;;22.67;100.00;99740.75;5016654;28;20030;-77
2023/07/29 08:16:24;;;;;;;3.30;1.40;;;;;;;22.83;100.00;99766.97;5016614;28;20046;-78
2023/07/29 08:18:50;;;;;;;3.20;1.50;;;;;;;23.16;100.00;99784.41;5018201;28;20077;-77
2023/07/29 08:21:16;;;;;;;3.15;1.50;;;;;;;23.07;100.00;99787.97;5018342;28;20480;-77
2023/07/29 08:23:42;;;;;;;3.90;1.40;;;;;;;23.41;100.00;99803.16;5017243;28;20041;-77
2023/07/29 08:26:09;;;;;;;3.10;1.30;;;;;;;23.22;100.00;99802.59;5016443;28;20041;-76
2023/07/29 08:28:39;;;;;;;1.88;1.20;;;;;;;23.45;100.00;99810.88;5019890;28;20045;-77
2023/07/29 08:31:06;;;;;;;3.17;1.10;;;;;;;23.51;100.00;99817.91;5022467;28;20030;-77
2023/07/29 08:33:33;;;;;;;4.20;1.13;;;;;;;23.54;100.00;99817.25;5021597;28;20041;-76
2023/07/29 08:36:00;;;;;;;1.50;1.10;;;;;;;23.42;100.00;99815.94;5016299;28;20494;-77
2023/07/29 08:38:26;;;;;;;1.38;1.00;;;;;;;23.41;100.00;99814.31;5028254;28;20371;-77
2023/07/29 08:41:11;;;;;;;3.70;1.60;;;;;;;23.43;100.00;99816.75;5016284;28;20575;-76
2023/07/29 08:43:43;;;;;;;2.30;1.40;;;;;;;23.68;100.00;99825.47;5017277;28;20044;-75
2023/07/29 08:46:09;;;;;;;2.20;1.20;;;;;;;23.63;100.00;99832.03;5017006;28;20046;-76
2023/07/29 08:48:42;;;;;;;1.90;1.30;;;;;;;23.44;100.00;99828.72;5021853;28;20487;-75
2023/07/29 08:51:10;;;;;;;3.05;1.50;;;;;;;23.30;100.00;99817.72;5019315;28;20120;-76
2023/07/29 08:53:38;;;;;;;2.72;1.58;;;;;;;22.91;100.00;99817.38;5019625;28;20041;-76
2023/07/29 08:56:05;;;;;;;2.85;1.50;;;;;;;22.96;100.00;99804.16;5015954;28;20033;-75
2023/07/29 08:58:32;;;;;;;2.05;1.45;;;;;;;22.76;100.00;99796.38;5016336;28;20030;-77
2023/07/29 09:00:58;;;;;;;2.38;1.70;;;;;;;22.79;100.00;99802.09;5016273;28;20132;-74
2023/07/29 09:03:24;;;;;;;2.10;1.55;;;;;;;22.70;100.00;99804.88;5024725;28;21134;-75
2023/07/29 09:05:52;;;;;;;2.47;1.60;;;;;;;22.52;100.00;99809.47;5020971;28;20030;-77
2023/07/29 09:08:19;;;;;;;2.53;1.60;;;;;;;22.27;100.00;99795.06;5015897;28;20038;-76
2023/07/29 09:10:45;;;;;;;3.67;1.77;;;;;;;22.13;100.00;99786.81;5016221;28;20469;-75
2023/07/29 09:13:11;;;;;;;3.42;2.10;;;;;;;22.03;100.00;99778.75;5024302;28;20041;-76
2023/07/29 09:15:37;;;;;;;4.70;1.92;;;;;;;21.87;100.00;99785.81;5027589;28;20033;-77
2023/07/29 09:18:11;;;;;;;1.90;1.58;;;;;;;21.78;100.00;99766.31;5023475;28;20042;-75
2023/07/29 09:20:37;;;;;;;4.20;2.20;;;;;;;21.70;100.00;99760.38;5027079;28;20172;-76
2023/07/29 09:23:06;;;;;;;3.53;1.85;;;;;;;21.69;100.00;99753.16;5023019;28;20197;-76
2023/07/29 09:25:32;;;;;;;3.60;2.10;;;;;;;21.86;100.00;99753.63;5023575;28;20088;-76
2023/07/29 09:28:07;;;;;;;2.97;2.05;;;;;;;22.24;100.00;99758.81;5033321;28;20433;-75
2023/07/29 09:30:33;;;;;;;3.90;2.20;;;;;;;22.54;100.00;99765.56;5023349;28;20552;-76
2023/07/29 09:32:59;;;;;;;3.17;2.00;;;;;;;22.64;100.00;99781.09;5020685;28;20033;-75
2023/07/29 09:35:30;;;;;;;3.35;2.20;;;;;;;23.08;100.00;99781.31;5029943;28;20069;-75
2023/07/29 09:37:56;;;;;;;3.38;2.40;;;;;;;23.15;100.00;99796.69;5039353;28;20046;-75
2023/07/29 09:40:22;;;;;;;3.22;2.00;;;;;;;23.64;100.00;99796.66;5026753;28;20037;-76
2023/07/29 09:42:53;;;;;;;2.88;2.08;;;;;;;24.34;100.00;99804.19;5033255;28;20034;-75
2023/07/29 09:45:21;;;;;;;3.08;2.30;;;;;;;24.86;100.00;99808.84;5025162;28;20046;-75
2023/07/29 09:47:47;;;;;;;3.22;2.38;;;;;;;25.47;100.00;99818.09;5020749;28;20026;-75
2023/07/29 09:50:13;;;;;;;3.40;2.25;;;;;;;25.81;100.00;99816.19;5015381;28;20042;-76
2023/07/29 09:52:40;;;;;;;3.60;2.67;;;;;;;25.88;100.00;99824.84;5017296;28;20429;-76
2023/07/29 09:55:07;;;;;;;4.60;2.03;;;;;;;25.84;100.00;99821.91;5027728;28;20405;-75
2023/07/29 09:57:35;;;;;;;4.10;2.40;;;;;;;25.71;100.00;99825.78;5019315;28;20045;-76
2023/07/29 10:00:05;;;;;;;6.82;2.83;;;;;;;25.46;100.00;99831.19;5018291;28;20037;-75
2023/07/29 10:02:32;;;;;;;12.30;7.32;;;;;;;25.04;100.00;99829.09;5019917;28;20097;-76
2023/07/29 10:04:59;;;;;;;1999.90;999.90;;;;;;;24.85;100.00;99815.56;5023106;28;20068;-75
2023/07/29 10:07:26;;;;;;;5.68;3.10;;;;;;;25.08;100.00;99827.28;5014869;28;20382;-76
2023/07/29 10:09:54;;;;;;;3.00;1.90;;;;;;;25.07;100.00;99822.03;5014645;28;20370;-75
2023/07/29 10:12:21;;;;;;;6.55;1.83;;;;;;;25.53;100.00;99837.06;5018863;28;20129;-75
2023/07/29 10:14:49;;;;;;;4.35;2.10;;;;;;;24.44;100.00;99817.78;5013895;28;20180;-76
2023/07/29 10:17:16;;;;;;;6.20;2.47;;;;;;;24.60;100.00;99829.22;5020758;28;20038;-75
2023/07/29 10:19:44;;;;;;;4.97;2.95;;;;;;;24.79;100.00;99825.25;5022446;28;20469;-75
2023/07/29 10:22:13;;;;;;;5.05;2.20;;;;;;;25.17;100.00;99834.78;5016816;28;20360;-75
2023/07/29 10:24:42;;;;;;;4.43;2.30;;;;;;;25.23;100.00;99825.88;5013769;28;20034;-75
2023/07/29 10:27:17;;;;;;;4.55;2.03;;;;;;;25.20;100.00;99823.78;5017345;28;20092;-75
2023/07/29 10:29:45;;;;;;;4.50;2.70;;;;;;;24.89;100.00;99824.91;5014704;28;20038;-75
2023/07/29 10:32:12;;;;;;;3.53;2.08;;;;;;;25.47;100.00;99843.22;5022686;28;20065;-75
2023/07/29 10:34:42;;;;;;;3.55;1.80;;;;;;;25.42;100.00;99821.84;5018156;28;20515;-74
2023/07/29 10:37:09;;;;;;;4.07;1.90;;;;;;;26.42;100.00;99810.09;5016599;28;20037;-75